METAR AND TAF INFORMATION
METAR FOR KSXU
ADDS - METARS form results

(1206 UTC 30 January 2023)
Data provider http://aviationweather.gov/metar/data/
 
METAR text: KSXU 301155Z AUTO 11004KT 5SM BR OVC007 M07/M09 A3009 RMK AO2 T10731086 11071 21090
Conditions at: KSXU (SANTA ROSA , NM, US) observed 1155 UTC 30 January 2023
Temperature: -7.3°C (19°F)
Dewpoint: -8.6°C (17°F) [RH = 90%]
Pressure (altimeter): 30.09 inches Hg (1019.0 mb)
Winds: from the ESE (110 degrees) at 5 MPH (4 knots; 2.1 m/s)
Visibility: 5 miles ( 8 km)
Ceiling: 700 feet AGL
Clouds: overcast cloud deck at 700 feet AGL
Weather: BR  (mist)

METAR text: KSXU 301135Z AUTO 00000KT 10SM OVC009 M07/M09 A3009 RMK AO2 T10731090
Conditions at: KSXU (SANTA ROSA , NM, US) observed 1135 UTC 30 January 2023
Temperature: -7.3°C (19°F)
Dewpoint: -9.0°C (16°F) [RH = 88%]
Pressure (altimeter): 30.09 inches Hg (1019.0 mb)
Winds: calm
Visibility: 10 or more miles (16+ km)
Ceiling: 900 feet AGL
Clouds: overcast cloud deck at 900 feet AGL
Weather: automated observation with no human augmentation;
there may or may not be significant weather present at this time

METAR text: KSXU 301115Z AUTO 00000KT 7SM OVC009 M07/M09 A3009 RMK AO2 T10751091
Conditions at: KSXU (SANTA ROSA , NM, US) observed 1115 UTC 30 January 2023
Temperature: -7.5°C (18°F)
Dewpoint: -9.1°C (16°F) [RH = 88%]
Pressure (altimeter): 30.09 inches Hg (1019.0 mb)
Winds: calm
Visibility: 7 miles (11 km)
Ceiling: 900 feet AGL
Clouds: overcast cloud deck at 900 feet AGL
Weather: automated observation with no human augmentation;
there may or may not be significant weather present at this time

 AIRPORT MAP

 RUNWAY INFORMATION

 AIRPORT FREQUENCIES

 AIRPORT NEAR NAVIGATION AIDS

-